Time;durP1;ratioP1;P1;durP2;ratioP2;P2;SDS_P1;SDS_P2;PMS_P1;PMS_P2;Temp;Humidity;BMP_temperature;BMP_pressure;BME280_temperature;BME280_humidity;BME280_pressure;Samples;Min_cycle;Max_cycle;Signal;HPM_P1;HPM_P2
2022/03/30 00:01:35;;;;;;;12.68;6.57;;;;;;;;;;6097642;23;20029;-84
2022/03/30 00:04:04;;;;;;;15.02;7.10;;;;;;;;;;6078740;23;20026;-84
2022/03/30 00:06:51;;;;;;;32.55;9.27;;;;;;;;;;6093384;23;20030;-84
2022/03/30 00:10:21;;;;;;;18.35;6.60;;;;;;;;;;6094852;23;20026;-84
2022/03/30 00:13:45;;;;;;;11.63;6.13;;;;;;;;;;6097948;23;20034;-84
2022/03/30 00:16:56;;;;;;;12.77;9.45;;;;;;;;;;6097568;23;20026;-84
2022/03/30 00:20:02;;;;;;;19.73;7.32;;;;;;;;;;6103334;23;20022;-84
2022/03/30 00:23:25;;;;;;;30.13;8.85;;;;;;;;;;6062884;23;20037;-84
2022/03/30 00:26:52;;;;;;;17.50;6.13;;;;;;;;;;6066656;23;20041;-85
2022/03/30 00:29:20;;;;;;;15.88;7.18;;;;;;;;;;6098101;23;20033;-85
2022/03/30 00:31:48;;;;;;;19.08;8.55;;;;;;;;;;6103975;23;20022;-84
2022/03/30 00:34:16;;;;;;;21.30;6.53;;;;;;;;;;6093819;23;20346;-84
2022/03/30 00:36:44;;;;;;;10.20;6.25;;;;;;;;;;6101013;23;20035;-84
2022/03/30 00:39:12;;;;;;;16.85;7.85;;;;;;;;;;6102088;23;20334;-84
2022/03/30 00:41:40;;;;;;;15.88;9.55;;;;;;;;;;6096816;23;20023;-84
2022/03/30 00:44:12;;;;;;;17.52;6.53;;;;;;;;;;6103175;23;20014;-84
2022/03/30 00:46:44;;;;;;;10.57;7.35;;;;;;;;;;6103623;23;20022;-84
2022/03/30 00:49:13;;;;;;;11.80;6.25;;;;;;;;;;6097185;23;20394;-85
2022/03/30 00:51:41;;;;;;;23.88;9.90;;;;;;;;;;6077889;23;20015;-84
2022/03/30 00:54:09;;;;;;;21.20;10.68;;;;;;;;;;6093153;23;20026;-84
2022/03/30 00:56:39;;;;;;;12.63;7.07;;;;;;;;;;6100952;23;20027;-84
2022/03/30 00:59:08;;;;;;;10.60;7.53;;;;;;;;;;6103365;23;20473;-84
2022/03/30 01:01:43;;;;;;;11.18;6.45;;;;;;;;;;6096766;23;20027;-84
2022/03/30 01:05:08;;;;;;;19.15;8.20;;;;;;;;;;6093313;23;20023;-84
2022/03/30 01:08:22;;;;;;;;;;;;;;;;;;6066069;23;20022;-85
2022/03/30 01:11:35;;;;;;;16.17;9.18;;;;;;;;;;6103538;23;19921;-85
2022/03/30 01:14:03;;;;;;;21.67;7.95;;;;;;;;;;6067126;23;20023;-84
2022/03/30 01:16:32;;;;;;;14.02;6.95;;;;;;;;;;6039417;23;20026;-84
2022/03/30 01:19:03;;;;;;;16.88;6.13;;;;;;;;;;6073790;23;20363;-85
2022/03/30 01:21:32;;;;;;;12.65;6.72;;;;;;;;;;6015541;23;20042;-85
2022/03/30 01:24:00;;;;;;;13.65;6.75;;;;;;;;;;6048579;23;20011;-84
2022/03/30 01:26:28;;;;;;;11.48;6.63;;;;;;;;;;6064932;23;20023;-84
2022/03/30 01:28:56;;;;;;;23.05;10.13;;;;;;;;;;6070515;23;20030;-85
2022/03/30 01:34:11;;;;;;;13.95;7.57;;;;;;;;;;6065320;23;20347;-84
2022/03/30 01:36:39;;;;;;;21.67;8.82;;;;;;;;;;6038662;23;20023;-84
2022/03/30 01:39:07;;;;;;;12.07;7.65;;;;;;;;;;6048112;23;20015;-85
2022/03/30 01:41:35;;;;;;;24.58;8.40;;;;;;;;;;6068165;23;20030;-84
2022/03/30 01:44:03;;;;;;;23.25;7.50;;;;;;;;;;6074329;23;20435;-84
2022/03/30 01:46:31;;;;;;;14.50;8.20;;;;;;;;;;6063691;23;20463;-85
2022/03/30 01:48:59;;;;;;;22.75;7.90;;;;;;;;;;6069651;23;20026;-84
2022/03/30 01:51:27;;;;;;;35.97;12.43;;;;;;;;;;6077356;23;20011;-84
2022/03/30 01:53:55;;;;;;;19.73;6.80;;;;;;;;;;6068925;23;20022;-84
2022/03/30 01:56:23;;;;;;;9.75;5.25;;;;;;;;;;6075401;23;20014;-84
2022/03/30 01:58:52;;;;;;;14.23;7.40;;;;;;;;;;6077300;23;20015;-85
2022/03/30 02:01:20;;;;;;;18.55;8.85;;;;;;;;;;6072288;23;20580;-85
2022/03/30 02:03:48;;;;;;;28.65;6.97;;;;;;;;;;6077321;23;20022;-85
2022/03/30 02:06:22;;;;;;;17.08;6.88;;;;;;;;;;6068536;23;20034;-83
2022/03/30 02:08:49;;;;;;;12.98;7.70;;;;;;;;;;6016840;23;20038;-84
2022/03/30 02:11:17;;;;;;;17.33;9.30;;;;;;;;;;6052327;23;20335;-84
2022/03/30 02:13:45;;;;;;;13.65;6.50;;;;;;;;;;6070306;23;20023;-84
2022/03/30 02:16:13;;;;;;;19.58;7.38;;;;;;;;;;6081701;23;20465;-84
2022/03/30 02:18:41;;;;;;;17.83;9.30;;;;;;;;;;6106500;23;20465;-84
2022/03/30 02:21:10;;;;;;;19.45;7.50;;;;;;;;;;6076083;23;20350;-84
2022/03/30 02:23:39;;;;;;;10.05;7.18;;;;;;;;;;6080267;23;20015;-85
2022/03/30 02:26:07;;;;;;;14.48;7.55;;;;;;;;;;6071452;23;20033;-84
2022/03/30 02:28:35;;;;;;;14.68;8.43;;;;;;;;;;6103613;23;20019;-84
2022/03/30 02:31:03;;;;;;;25.10;13.13;;;;;;;;;;6106455;23;20014;-84
2022/03/30 02:33:31;;;;;;;17.20;8.52;;;;;;;;;;6099803;23;20481;-84
2022/03/30 02:35:59;;;;;;;19.10;8.13;;;;;;;;;;6106199;23;20021;-84
2022/03/30 02:38:27;;;;;;;40.55;9.38;;;;;;;;;;6095130;23;20023;-84
2022/03/30 02:40:55;;;;;;;16.45;6.72;;;;;;;;;;6102473;23;20027;-84
2022/03/30 02:43:23;;;;;;;14.57;7.78;;;;;;;;;;6106494;23;20029;-84
2022/03/30 02:45:51;;;;;;;26.38;8.60;;;;;;;;;;6099015;23;20022;-84
2022/03/30 02:48:19;;;;;;;25.77;11.02;;;;;;;;;;6103875;23;20022;-84
2022/03/30 02:50:48;;;;;;;15.60;5.97;;;;;;;;;;6080452;23;20014;-84
2022/03/30 02:53:17;;;;;;;23.90;10.30;;;;;;;;;;6100476;23;20034;-84
2022/03/30 02:55:45;;;;;;;14.55;8.20;;;;;;;;;;6105997;23;20014;-84
2022/03/30 02:58:13;;;;;;;17.58;7.30;;;;;;;;;;6096256;23;20033;-84
2022/03/30 03:00:42;;;;;;;14.27;7.28;;;;;;;;;;6103233;23;20025;-84
2022/03/30 03:03:10;;;;;;;10.52;7.38;;;;;;;;;;6103622;23;20021;-84
2022/03/30 03:05:41;;;;;;;11.32;6.35;;;;;;;;;;6098029;23;20029;-84
2022/03/30 03:08:11;;;;;;;19.17;9.63;;;;;;;;;;6102765;23;20446;-84
2022/03/30 03:11:02;;;;;;;13.57;6.30;;;;;;;;;;6094761;23;20030;-84
2022/03/30 03:14:41;;;;;;;19.45;9.13;;;;;;;;;;6095091;23;20033;-84
2022/03/30 03:18:15;;;;;;;20.38;7.72;;;;;;;;;;6065178;23;20027;-84
2022/03/30 03:21:37;;;;;;;13.43;6.70;;;;;;;;;;6039857;23;20026;-84
2022/03/30 03:24:57;;;;;;;14.27;7.55;;;;;;;;;;6071831;23;20030;-84
2022/03/30 03:28:23;;;;;;;19.90;8.50;;;;;;;;;;6074008;23;20023;-84
2022/03/30 03:31:36;;;;;;;32.13;8.50;;;;;;;;;;6066780;23;20435;-84
2022/03/30 03:34:33;;;;;;;14.88;8.77;;;;;;;;;;6064715;23;20038;-84
2022/03/30 03:37:44;;;;;;;18.30;7.10;;;;;;;;;;6036891;23;20030;-85
2022/03/30 03:40:59;;;;;;;21.52;8.27;;;;;;;;;;6072233;23;20026;-84
2022/03/30 03:44:13;;;;;;;17.77;8.20;;;;;;;;;;6051423;23;20435;-84
2022/03/30 03:47:15;;;;;;;9.02;7.13;;;;;;;;;;6068744;23;20025;-84
2022/03/30 03:50:03;;;;;;;14.48;8.10;;;;;;;;;;6068098;23;20038;-84
2022/03/30 03:53:24;;;;;;;16.02;7.22;;;;;;;;;;6030642;23;20023;-84
2022/03/30 03:56:18;;;;;;;16.17;8.93;;;;;;;;;;6053430;23;20022;-84
2022/03/30 03:58:52;;;;;;;19.05;8.32;;;;;;;;;;6050967;23;20391;-84
2022/03/30 04:01:20;;;;;;;16.13;7.63;;;;;;;;;;6068589;23;20027;-84
2022/03/30 04:03:48;;;;;;;12.52;8.48;;;;;;;;;;6075097;23;20022;-84
2022/03/30 04:06:42;;;;;;;21.23;7.85;;;;;;;;;;6040431;23;20043;-84
2022/03/30 04:10:01;;;;;;;14.40;7.55;;;;;;;;;;6065687;23;20045;-77
2022/03/30 04:13:04;;;;;;;16.83;5.93;;;;;;;;;;6037261;23;20355;-76
2022/03/30 04:16:20;;;;;;;14.25;7.93;;;;;;;;;;6078385;23;20033;-77
2022/03/30 04:18:48;;;;;;;13.23;6.97;;;;;;;;;;6103439;23;20438;-76
2022/03/30 04:21:16;;;;;;;19.75;7.93;;;;;;;;;;6098509;23;20027;-83
2022/03/30 04:23:44;;;;;;;27.45;8.50;;;;;;;;;;6103149;23;20019;-84
2022/03/30 04:26:13;;;;;;;18.58;9.38;;;;;;;;;;6093810;23;20034;-84
2022/03/30 04:28:41;;;;;;;17.17;7.68;;;;;;;;;;6093974;23;20022;-84
2022/03/30 04:31:09;;;;;;;14.52;8.40;;;;;;;;;;6077748;23;20018;-84
2022/03/30 04:33:37;;;;;;;11.00;7.53;;;;;;;;;;6096822;23;20051;-84
2022/03/30 04:36:06;;;;;;;27.05;11.82;;;;;;;;;;6103659;23;20014;-84
2022/03/30 04:38:34;;;;;;;17.23;8.30;;;;;;;;;;6091203;23;20034;-84
2022/03/30 04:41:02;;;;;;;15.52;10.32;;;;;;;;;;6098660;23;20347;-84
2022/03/30 04:43:31;;;;;;;15.70;8.40;;;;;;;;;;6104158;23;20434;-85
2022/03/30 04:45:59;;;;;;;19.60;8.18;;;;;;;;;;6095514;23;20026;-84
2022/03/30 04:48:27;;;;;;;19.92;9.02;;;;;;;;;;6076071;23;20025;-84
2022/03/30 04:50:55;;;;;;;10.35;8.50;;;;;;;;;;6102959;23;20014;-83
2022/03/30 04:53:23;;;;;;;20.85;7.13;;;;;;;;;;6096626;23;20022;-84
2022/03/30 04:55:51;;;;;;;23.70;8.20;;;;;;;;;;6103800;23;20010;-83
2022/03/30 04:58:18;;;;;;;17.50;8.85;;;;;;;;;;6093434;23;20029;-82
2022/03/30 05:00:47;;;;;;;23.17;8.27;;;;;;;;;;6099996;23;20026;-80
2022/03/30 05:03:15;;;;;;;22.08;9.00;;;;;;;;;;6103639;23;20010;-86
2022/03/30 05:05:44;;;;;;;15.63;7.85;;;;;;;;;;6071237;23;20030;-81
2022/03/30 05:08:12;;;;;;;19.90;8.43;;;;;;;;;;6100486;23;20355;-83
2022/03/30 05:10:40;;;;;;;14.73;7.03;;;;;;;;;;6103108;23;20019;-84
2022/03/30 05:13:08;;;;;;;24.73;7.65;;;;;;;;;;6098290;23;20022;-84
2022/03/30 05:15:36;;;;;;;22.13;14.27;;;;;;;;;;6078099;23;20025;-86
2022/03/30 05:18:06;;;;;;;30.25;8.70;;;;;;;;;;6093622;23;20081;-85
2022/03/30 05:20:34;;;;;;;22.67;12.50;;;;;;;;;;6100295;23;20477;-85
2022/03/30 05:23:03;;;;;;;13.07;9.02;;;;;;;;;;6102029;23;20041;-82
2022/03/30 05:25:31;;;;;;;16.77;7.25;;;;;;;;;;6096178;23;20026;-84
2022/03/30 05:28:00;;;;;;;16.25;9.45;;;;;;;;;;6074890;23;20346;-82
2022/03/30 05:30:28;;;;;;;14.82;9.00;;;;;;;;;;6091036;23;20031;-85
2022/03/30 05:32:56;;;;;;;15.85;8.73;;;;;;;;;;6096775;23;20026;-85
2022/03/30 05:35:24;;;;;;;15.80;8.30;;;;;;;;;;6075561;23;20018;-83
2022/03/30 05:37:52;;;;;;;30.17;9.38;;;;;;;;;;6040735;23;20354;-86
2022/03/30 05:40:20;;;;;;;19.77;10.23;;;;;;;;;;6041570;23;20015;-86
2022/03/30 05:42:48;;;;;;;21.42;11.02;;;;;;;;;;6041534;23;20029;-86
2022/03/30 05:45:16;;;;;;;21.33;10.55;;;;;;;;;;6070570;23;20046;-86
2022/03/30 05:47:44;;;;;;;13.15;8.10;;;;;;;;;;6064877;23;20022;-87
2022/03/30 05:50:12;;;;;;;21.13;9.85;;;;;;;;;;6091821;23;20026;-86
2022/03/30 05:52:40;;;;;;;10.50;7.88;;;;;;;;;;6071802;23;20778;-86
2022/03/30 05:55:09;;;;;;;13.25;9.30;;;;;;;;;;6041533;23;20019;-86
2022/03/30 05:57:37;;;;;;;14.95;10.20;;;;;;;;;;6094591;23;20026;-86
2022/03/30 06:00:07;;;;;;;14.18;8.30;;;;;;;;;;6076377;23;20011;-86
2022/03/30 06:02:40;;;;;;;15.88;7.95;;;;;;;;;;6074575;23;20332;-86
2022/03/30 06:05:09;;;;;;;17.42;11.63;;;;;;;;;;6097885;23;20026;-86
2022/03/30 06:07:37;;;;;;;14.13;7.78;;;;;;;;;;6102255;23;20323;-86
2022/03/30 06:10:05;;;;;;;16.13;9.48;;;;;;;;;;6094884;23;20025;-83
2022/03/30 06:12:34;;;;;;;15.88;9.30;;;;;;;;;;6074758;23;20033;-86
2022/03/30 06:15:02;;;;;;;14.60;8.75;;;;;;;;;;6103135;23;20021;-86
2022/03/30 06:17:34;;;;;;;25.65;12.32;;;;;;;;;;6095011;23;20033;-86
2022/03/30 06:20:03;;;;;;;22.23;9.82;;;;;;;;;;6102993;23;20017;-86
2022/03/30 06:22:32;;;;;;;12.57;8.60;;;;;;;;;;6066176;23;20023;-86
2022/03/30 06:25:01;;;;;;;11.02;8.73;;;;;;;;;;6097808;23;20023;-85
2022/03/30 06:27:29;;;;;;;14.45;9.07;;;;;;;;;;6103342;23;20014;-86
2022/03/30 06:29:58;;;;;;;12.18;7.93;;;;;;;;;;6094829;23;20029;-85
2022/03/30 06:32:27;;;;;;;24.50;9.65;;;;;;;;;;6100671;23;20022;-84
2022/03/30 06:34:55;;;;;;;13.00;8.95;;;;;;;;;;6077724;23;20021;-85
2022/03/30 06:37:24;;;;;;;18.08;8.82;;;;;;;;;;6072169;23;20462;-85
2022/03/30 06:39:51;;;;;;;16.55;10.02;;;;;;;;;;6044982;23;20029;-86
2022/03/30 06:42:20;;;;;;;8.35;7.15;;;;;;;;;;6095284;23;20462;-85
2022/03/30 06:44:48;;;;;;;11.55;7.18;;;;;;;;;;6101559;23;20034;-86
2022/03/30 06:47:17;;;;;;;25.67;11.30;;;;;;;;;;6104952;23;20014;-86
2022/03/30 06:49:45;;;;;;;12.15;7.53;;;;;;;;;;6096777;23;20026;-86
2022/03/30 06:52:13;;;;;;;13.52;8.02;;;;;;;;;;6103551;23;20034;-86
2022/03/30 06:54:41;;;;;;;16.92;8.55;;;;;;;;;;6104063;23;20042;-86
2022/03/30 06:57:09;;;;;;;16.40;8.88;;;;;;;;;;6100038;23;20026;-85
2022/03/30 06:59:37;;;;;;;14.82;8.50;;;;;;;;;;6104568;23;20025;-86
2022/03/30 07:02:05;;;;;;;15.63;8.50;;;;;;;;;;6096060;23;20457;-85
2022/03/30 07:04:35;;;;;;;9.85;6.40;;;;;;;;;;6097547;23;20018;-86
2022/03/30 07:10:15;;;;;;;14.00;7.97;;;;;;;;;;6067476;23;20033;-83
2022/03/30 07:12:45;;;;;;;14.82;9.00;;;;;;;;;;6096744;23;20031;-77
2022/03/30 07:15:18;;;;;;;22.65;8.45;;;;;;;;;;6099653;23;20019;-82
2022/03/30 07:17:58;;;;;;;13.20;7.50;;;;;;;;;;6065358;23;20034;-83
2022/03/30 07:20:30;;;;;;;18.52;9.77;;;;;;;;;;6097906;23;20018;-81
2022/03/30 07:23:01;;;;;;;;;;;;;;;;;;6064183;23;20029;-80
2022/03/30 07:25:30;;;;;;;48.25;8.95;;;;;;;;;;6068400;23;19944;-82
2022/03/30 07:27:59;;;;;;;13.30;8.05;;;;;;;;;;6050534;23;20018;-81
2022/03/30 07:30:27;;;;;;;12.77;8.65;;;;;;;;;;6089242;23;20027;-81
2022/03/30 07:32:56;;;;;;;17.63;9.88;;;;;;;;;;6095947;23;20026;-81
2022/03/30 07:35:32;;;;;;;13.77;6.88;;;;;;;;;;6100012;23;20014;-81
2022/03/30 07:38:01;;;;;;;10.43;8.93;;;;;;;;;;6064823;23;20654;-81
2022/03/30 07:40:34;;;;;;;20.48;8.30;;;;;;;;;;6072100;23;20584;-81
2022/03/30 07:43:03;;;;;;;26.05;8.50;;;;;;;;;;6074312;23;20025;-81
2022/03/30 07:45:40;;;;;;;17.05;9.20;;;;;;;;;;6089064;23;20026;-81
2022/03/30 07:48:12;;;;;;;14.75;8.25;;;;;;;;;;6063636;23;20018;-80
2022/03/30 07:50:41;;;;;;;16.10;8.40;;;;;;;;;;6099236;23;20014;-81
2022/03/30 07:53:15;;;;;;;24.17;9.95;;;;;;;;;;6094063;23;20033;-81
2022/03/30 07:55:52;;;;;;;13.77;9.00;;;;;;;;;;6088125;23;20036;-81
2022/03/30 07:58:21;;;;;;;21.85;9.02;;;;;;;;;;6089297;23;20057;-81
2022/03/30 08:00:50;;;;;;;42.75;13.18;;;;;;;;;;6084090;23;20030;-81
2022/03/30 08:03:20;;;;;;;16.05;7.75;;;;;;;;;;6099184;23;20019;-81
2022/03/30 08:05:55;;;;;;;14.52;7.25;;;;;;;;;;6092020;23;20026;-81
2022/03/30 08:08:28;;;;;;;20.48;7.65;;;;;;;;;;6086798;23;20030;-81
2022/03/30 08:10:59;;;;;;;21.13;6.50;;;;;;;;;;6100025;23;20021;-81
2022/03/30 08:13:29;;;;;;;12.63;6.93;;;;;;;;;;6063574;23;20030;-81
2022/03/30 08:15:58;;;;;;;20.15;6.50;;;;;;;;;;6099732;23;20025;-81
2022/03/30 08:18:26;;;;;;;9.90;6.70;;;;;;;;;;6058793;23;20041;-81
2022/03/30 08:23:42;;;;;;;21.20;8.80;;;;;;;;;;6044835;23;20015;-82
2022/03/30 08:26:11;;;;;;;18.75;8.40;;;;;;;;;;6034441;23;20022;-81
2022/03/30 08:28:40;;;;;;;14.38;7.70;;;;;;;;;;6067802;23;20049;-82
2022/03/30 08:31:09;;;;;;;20.52;7.25;;;;;;;;;;6045448;23;20015;-81
2022/03/30 08:33:38;;;;;;;26.67;7.63;;;;;;;;;;6038261;23;20478;-83
2022/03/30 08:36:10;;;;;;;14.98;7.88;;;;;;;;;;6060015;23;20446;-80
2022/03/30 08:38:39;;;;;;;15.90;7.68;;;;;;;;;;6034574;23;20439;-81
2022/03/30 08:41:07;;;;;;;16.10;9.20;;;;;;;;;;6065808;23;20049;-79
2022/03/30 08:43:36;;;;;;;18.08;7.93;;;;;;;;;;6035111;23;20023;-80
2022/03/30 08:46:05;;;;;;;10.50;7.85;;;;;;;;;;6061974;23;20543;-79
2022/03/30 08:48:34;;;;;;;25.88;7.13;;;;;;;;;;6067292;23;20023;-80
2022/03/30 08:51:03;;;;;;;12.70;8.00;;;;;;;;;;6070078;23;20015;-80
2022/03/30 08:53:32;;;;;;;16.70;7.20;;;;;;;;;;6063459;23;20038;-80
2022/03/30 08:56:02;;;;;;;24.70;9.30;;;;;;;;;;6060465;23;20054;-80
2022/03/30 08:58:30;;;;;;;10.55;5.88;;;;;;;;;;6058678;23;20031;-80
2022/03/30 09:01:09;;;;;;;8.32;5.57;;;;;;;;;;6031654;23;20065;-80
2022/03/30 09:03:55;;;;;;;15.10;8.30;;;;;;;;;;6069274;23;20018;-80
2022/03/30 09:06:41;;;;;;;13.88;6.00;;;;;;;;;;6060078;23;20023;-80
2022/03/30 09:09:16;;;;;;;14.57;6.07;;;;;;;;;;6064084;23;20023;-80
2022/03/30 09:11:53;;;;;;;27.52;7.03;;;;;;;;;;6069403;23;20015;-81
2022/03/30 09:14:26;;;;;;;10.82;4.30;;;;;;;;;;6034733;23;20366;-81
2022/03/30 09:16:56;;;;;;;20.67;6.38;;;;;;;;;;6071836;23;20034;-80
2022/03/30 09:19:26;;;;;;;38.67;10.77;;;;;;;;;;6098177;23;20018;-81
2022/03/30 09:21:57;;;;;;;10.73;6.40;;;;;;;;;;6065678;23;20088;-80
2022/03/30 09:24:27;;;;;;;22.00;5.88;;;;;;;;;;6095333;23;20521;-81
2022/03/30 09:26:56;;;;;;;11.07;5.30;;;;;;;;;;6098929;23;20021;-82
2022/03/30 09:29:26;;;;;;;24.50;6.93;;;;;;;;;;6092622;23;20022;-82
2022/03/30 09:32:15;;;;;;;27.95;11.25;;;;;;;;;;6098216;23;20421;-80
2022/03/30 09:34:51;;;;;;;23.83;6.75;;;;;;;;;;6097508;23;20451;-80
2022/03/30 09:37:21;;;;;;;14.85;6.47;;;;;;;;;;6062162;23;20034;-81
2022/03/30 09:39:50;;;;;;;30.73;9.20;;;;;;;;;;6063024;23;20353;-80
2022/03/30 09:42:19;;;;;;;12.55;5.97;;;;;;;;;;6088951;23;20638;-81
2022/03/30 09:44:49;;;;;;;12.57;5.70;;;;;;;;;;6094904;23;20038;-80
2022/03/30 09:47:21;;;;;;;15.68;8.13;;;;;;;;;;6072132;23;20029;-81
2022/03/30 09:49:52;;;;;;;23.52;9.07;;;;;;;;;;6066117;23;20433;-81
2022/03/30 09:52:24;;;;;;;14.65;6.95;;;;;;;;;;6062609;23;20018;-81
2022/03/30 09:54:55;;;;;;;38.00;9.32;;;;;;;;;;6049544;23;20461;-80
2022/03/30 09:57:24;;;;;;;27.20;5.35;;;;;;;;;;6062321;23;20027;-81
2022/03/30 10:00:02;;;;;;;40.95;9.15;;;;;;;;;;6061586;23;20025;-80
2022/03/30 10:02:55;;;;;;;16.52;7.00;;;;;;;;;;6087784;23;20022;-80
2022/03/30 10:05:25;;;;;;;14.00;7.38;;;;;;;;;;6067589;23;20026;-81
2022/03/30 10:07:55;;;;;;;18.08;7.28;;;;;;;;;;6095452;23;20021;-78
2022/03/30 10:10:23;;;;;;;17.02;5.68;;;;;;;;;;6088529;23;20022;-79
2022/03/30 10:12:53;;;;;;;48.08;10.60;;;;;;;;;;6071404;23;20378;-79
2022/03/30 10:15:26;;;;;;;19.77;7.90;;;;;;;;;;6100793;23;20011;-79
2022/03/30 10:17:55;;;;;;;12.32;5.88;;;;;;;;;;6092052;23;20058;-80
2022/03/30 10:20:23;;;;;;;15.98;7.63;;;;;;;;;;6098579;23;20015;-78
2022/03/30 10:22:52;;;;;;;17.67;7.32;;;;;;;;;;6088228;23;20018;-81
2022/03/30 10:25:21;;;;;;;12.25;4.57;;;;;;;;;;6094830;23;20022;-79
2022/03/30 10:28:08;;;;;;;33.97;9.00;;;;;;;;;;6100032;23;20022;-82
2022/03/30 10:30:39;;;;;;;11.75;6.00;;;;;;;;;;6089270;23;20534;-82
2022/03/30 10:33:07;;;;;;;22.08;9.38;;;;;;;;;;6094931;23;20038;-80
2022/03/30 10:35:44;;;;;;;17.23;8.27;;;;;;;;;;6100156;23;20021;-81
2022/03/30 10:38:16;;;;;;;34.45;9.55;;;;;;;;;;6089768;23;20027;-80
2022/03/30 10:41:06;;;;;;;22.52;7.32;;;;;;;;;;6096343;23;20026;-81
2022/03/30 10:43:35;;;;;;;20.98;6.43;;;;;;;;;;6099898;23;20021;-80
2022/03/30 10:46:09;;;;;;;13.00;6.90;;;;;;;;;;6090052;23;20034;-80
2022/03/30 10:48:38;;;;;;;16.50;8.93;;;;;;;;;;6097012;23;20023;-81
2022/03/30 10:51:15;;;;;;;15.93;7.10;;;;;;;;;;6100554;23;20037;-82
2022/03/30 10:53:46;;;;;;;25.05;7.05;;;;;;;;;;6091814;23;20030;-81
2022/03/30 10:56:18;;;;;;;22.27;6.85;;;;;;;;;;6098577;23;20022;-80
2022/03/30 10:59:06;;;;;;;50.60;7.25;;;;;;;;;;6098910;23;20103;-83
2022/03/30 11:01:35;;;;;;;22.25;5.93;;;;;;;;;;6093206;23;20022;-77
2022/03/30 11:04:07;;;;;;;21.00;11.70;;;;;;;;;;6099424;23;20021;-77
2022/03/30 11:06:36;;;;;;;22.92;7.78;;;;;;;;;;6063614;23;20038;-80
2022/03/30 11:09:08;;;;;;;9.75;6.05;;;;;;;;;;6068750;23;20031;-84
2022/03/30 11:11:45;;;;;;;19.00;6.13;;;;;;;;;;6101589;23;20022;-82
2022/03/30 11:14:36;;;;;;;18.00;10.05;;;;;;;;;;6065278;23;20042;-82
2022/03/30 11:17:07;;;;;;;31.80;8.48;;;;;;;;;;6097474;23;20026;-83
2022/03/30 11:19:47;;;;;;;15.70;4.97;;;;;;;;;;6101521;23;20021;-83
2022/03/30 11:22:16;;;;;;;32.33;8.05;;;;;;;;;;6089943;23;20033;-82
2022/03/30 11:24:45;;;;;;;18.85;6.55;;;;;;;;;;6095434;23;20033;-84
2022/03/30 11:27:14;;;;;;;30.23;6.25;;;;;;;;;;6098648;23;20018;-82
2022/03/30 11:29:50;;;;;;;31.48;10.38;;;;;;;;;;6063883;23;20034;-83
2022/03/30 11:32:23;;;;;;;14.13;7.47;;;;;;;;;;6066432;23;20014;-82
2022/03/30 11:34:55;;;;;;;24.92;12.27;;;;;;;;;;6100237;23;20021;-83
2022/03/30 11:37:31;;;;;;;14.48;7.18;;;;;;;;;;6093199;23;20030;-81
2022/03/30 11:40:09;;;;;;;17.70;9.65;;;;;;;;;;6072989;23;20025;-83
2022/03/30 11:42:44;;;;;;;30.52;8.40;;;;;;;;;;6048806;23;20026;-83
2022/03/30 11:45:21;;;;;;;24.75;7.32;;;;;;;;;;6064740;23;20026;-84
2022/03/30 11:47:57;;;;;;;20.27;8.10;;;;;;;;;;6064402;23;20033;-83
2022/03/30 11:50:27;;;;;;;13.20;7.15;;;;;;;;;;6039882;23;20035;-84
2022/03/30 11:53:12;;;;;;;14.57;6.13;;;;;;;;;;6039222;23;20454;-85
2022/03/30 11:55:51;;;;;;;15.05;6.18;;;;;;;;;;6063482;23;20033;-84
2022/03/30 11:58:45;;;;;;;24.60;7.50;;;;;;;;;;6062223;23;20477;-84
2022/03/30 12:01:16;;;;;;;36.10;9.02;;;;;;;;;;6081106;23;20030;-84
2022/03/30 12:03:50;;;;;;;8.25;5.90;;;;;;;;;;6073983;23;20019;-83
2022/03/30 12:06:19;;;;;;;17.75;7.45;;;;;;;;;;6061564;23;20026;-83
2022/03/30 12:08:48;;;;;;;27.17;6.65;;;;;;;;;;6092331;23;20045;-86
2022/03/30 12:11:20;;;;;;;14.52;6.07;;;;;;;;;;6072783;23;20064;-88
2022/03/30 12:13:52;;;;;;;34.05;8.50;;;;;;;;;;6039127;23;20609;-84
2022/03/30 12:16:21;;;;;;;21.58;6.68;;;;;;;;;;6038896;23;20029;-84
2022/03/30 12:19:01;;;;;;;14.45;5.85;;;;;;;;;;6073093;23;20752;-84
2022/03/30 12:21:34;;;;;;;14.20;5.88;;;;;;;;;;6038851;23;20022;-83
2022/03/30 12:24:07;;;;;;;25.60;7.75;;;;;;;;;;6098990;23;20010;-87
2022/03/30 12:26:51;;;;;;;23.05;6.93;;;;;;;;;;6051243;23;20026;-85
2022/03/30 12:29:20;;;;;;;18.30;6.18;;;;;;;;;;6015923;23;20026;-85
2022/03/30 12:31:53;;;;;;;15.27;7.32;;;;;;;;;;6099358;23;20018;-84
2022/03/30 12:34:23;;;;;;;10.77;7.43;;;;;;;;;;6088908;23;20770;-84
2022/03/30 12:36:54;;;;;;;16.52;5.45;;;;;;;;;;6047172;23;20026;-84
2022/03/30 12:39:32;;;;;;;18.50;8.05;;;;;;;;;;6085433;23;20033;-86
2022/03/30 12:42:17;;;;;;;20.70;9.55;;;;;;;;;;6039376;23;20052;-87
2022/03/30 12:44:50;;;;;;;22.65;6.80;;;;;;;;;;6039298;23;20481;-81
2022/03/30 12:47:32;;;;;;;11.82;5.70;;;;;;;;;;6070091;23;20030;-79
2022/03/30 12:50:01;;;;;;;11.52;5.55;;;;;;;;;;6065185;23;20030;-76
2022/03/30 12:52:32;;;;;;;6.20;5.00;;;;;;;;;;6095964;23;20022;-78
2022/03/30 12:55:13;;;;;;;11.57;7.80;;;;;;;;;;6073337;23;20019;-78
2022/03/30 12:57:51;;;;;;;16.23;6.87;;;;;;;;;;6088140;23;20026;-78
2022/03/30 13:00:20;;;;;;;9.73;5.28;;;;;;;;;;6063159;23;20026;-77
2022/03/30 13:02:48;;;;;;;11.27;5.28;;;;;;;;;;6098766;23;20022;-77
2022/03/30 13:05:24;;;;;;;13.95;5.80;;;;;;;;;;6092939;23;20045;-78
2022/03/30 13:07:58;;;;;;;14.90;7.28;;;;;;;;;;6086884;23;20019;-79
2022/03/30 13:10:26;;;;;;;21.52;8.63;;;;;;;;;;6088295;23;20638;-76
2022/03/30 13:12:59;;;;;;;16.80;8.52;;;;;;;;;;6094948;23;20033;-79
2022/03/30 13:15:34;;;;;;;26.83;7.95;;;;;;;;;;6098455;23;20022;-78
2022/03/30 13:18:07;;;;;;;16.75;5.65;;;;;;;;;;6089674;23;20022;-77
2022/03/30 13:20:37;;;;;;;12.73;5.35;;;;;;;;;;6096012;23;20018;-77
2022/03/30 13:23:06;;;;;;;21.60;6.07;;;;;;;;;;6097818;23;20018;-77
2022/03/30 13:25:39;;;;;;;18.88;6.15;;;;;;;;;;6091909;23;20041;-77
2022/03/30 13:28:08;;;;;;;16.48;7.38;;;;;;;;;;6096809;23;20810;-77
2022/03/30 13:30:36;;;;;;;15.65;8.43;;;;;;;;;;6098425;23;20026;-77
2022/03/30 13:33:04;;;;;;;11.85;7.20;;;;;;;;;;6068062;23;20052;-77
2022/03/30 13:35:34;;;;;;;13.85;7.03;;;;;;;;;;6038312;23;20018;-77
2022/03/30 13:38:03;;;;;;;19.27;7.97;;;;;;;;;;6089200;23;20814;-78
2022/03/30 13:40:33;;;;;;;17.63;7.00;;;;;;;;;;6070760;23;20025;-78
2022/03/30 13:43:01;;;;;;;20.20;7.45;;;;;;;;;;6098930;23;20018;-78
2022/03/30 13:45:30;;;;;;;15.15;8.27;;;;;;;;;;6092330;23;20362;-77
2022/03/30 13:47:58;;;;;;;13.40;7.28;;;;;;;;;;6098037;23;20018;-77
2022/03/30 13:50:26;;;;;;;20.70;6.63;;;;;;;;;;6088761;23;20026;-79
2022/03/30 13:52:54;;;;;;;20.48;8.27;;;;;;;;;;6067692;23;20030;-77
2022/03/30 13:55:23;;;;;;;18.50;7.55;;;;;;;;;;6097773;23;20457;-77
2022/03/30 13:57:51;;;;;;;19.42;9.60;;;;;;;;;;6090058;23;20342;-78
2022/03/30 14:00:19;;;;;;;17.70;9.88;;;;;;;;;;6071750;23;20476;-78
2022/03/30 14:02:47;;;;;;;20.85;9.30;;;;;;;;;;6098455;23;20018;-78
2022/03/30 14:05:15;;;;;;;24.55;9.07;;;;;;;;;;6061221;23;20026;-78
2022/03/30 14:07:45;;;;;;;20.23;8.93;;;;;;;;;;6095994;23;20014;-78
2022/03/30 14:10:15;;;;;;;;;;;;;;;;;;6089546;23;20022;-79
2022/03/30 14:12:43;;;;;;;14.98;9.40;;;;;;;;;;6095588;23;20371;-78
2022/03/30 14:15:11;;;;;;;26.25;9.27;;;;;;;;;;6098769;23;20018;-79
2022/03/30 14:17:39;;;;;;;15.55;7.32;;;;;;;;;;6091403;23;20034;-78
2022/03/30 14:20:08;;;;;;;12.38;7.88;;;;;;;;;;6061924;23;20023;-79
2022/03/30 14:22:43;;;;;;;16.25;6.78;;;;;;;;;;6098381;23;20022;-78
2022/03/30 14:25:14;;;;;;;15.63;9.55;;;;;;;;;;6067934;23;20690;-79
2022/03/30 14:27:48;;;;;;;31.05;9.32;;;;;;;;;;6071191;23;20022;-78
2022/03/30 14:30:17;;;;;;;23.70;10.45;;;;;;;;;;6089065;23;20029;-78
2022/03/30 14:32:45;;;;;;;38.80;10.00;;;;;;;;;;6094747;23;20031;-78
2022/03/30 14:35:17;;;;;;;17.60;8.35;;;;;;;;;;6098631;23;20023;-79
2022/03/30 14:37:47;;;;;;;17.23;7.53;;;;;;;;;;6089910;23;20027;-79
2022/03/30 14:40:16;;;;;;;18.55;8.25;;;;;;;;;;6097623;23;20019;-80
2022/03/30 14:42:44;;;;;;;14.93;8.52;;;;;;;;;;6098514;23;20019;-79
2022/03/30 14:45:14;;;;;;;26.30;8.05;;;;;;;;;;6092736;23;20027;-79
2022/03/30 14:47:42;;;;;;;11.00;8.68;;;;;;;;;;6097727;23;20022;-80
2022/03/30 14:50:10;;;;;;;17.75;10.77;;;;;;;;;;6089169;23;20022;-79
2022/03/30 14:52:39;;;;;;;17.67;8.90;;;;;;;;;;6094734;23;20338;-79
2022/03/30 14:55:08;;;;;;;14.18;7.95;;;;;;;;;;6097982;23;20450;-80
2022/03/30 14:57:36;;;;;;;18.60;9.52;;;;;;;;;;6090915;23;20031;-80
2022/03/30 15:00:05;;;;;;;16.65;7.28;;;;;;;;;;6100142;23;20029;-79
2022/03/30 15:02:33;;;;;;;16.10;7.15;;;;;;;;;;6088264;23;20035;-80
2022/03/30 15:05:02;;;;;;;18.05;8.80;;;;;;;;;;6095631;23;20026;-79
2022/03/30 15:07:29;;;;;;;13.20;10.25;;;;;;;;;;6099717;23;20014;-80
2022/03/30 15:09:57;;;;;;;14.60;8.68;;;;;;;;;;6091209;23;20037;-80
2022/03/30 15:12:26;;;;;;;13.38;8.73;;;;;;;;;;6063132;23;20018;-80
2022/03/30 15:14:54;;;;;;;12.57;9.98;;;;;;;;;;6099767;23;20015;-79
2022/03/30 15:17:23;;;;;;;27.33;10.63;;;;;;;;;;6094360;23;20455;-79
2022/03/30 15:19:51;;;;;;;19.13;12.95;;;;;;;;;;6099808;23;20014;-80